Time;durP1;ratioP1;P1;durP2;ratioP2;P2;SDS_P1;SDS_P2;PMS_P1;PMS_P2;Temp;Humidity;BMP_temperature;BMP_pressure;BME280_temperature;BME280_humidity;BME280_pressure;Samples;Min_cycle;Max_cycle;Signal;HPM_P1;HPM_P2
2023/09/19 00:00:38;;;;;;;1999.90;999.90;;;17.20;99.90;;;;;;5044786;28;20022;-75
2023/09/19 00:03:06;;;;;;;1999.90;999.90;;;17.30;99.90;;;;;;5052434;28;20070;-75
2023/09/19 00:05:35;;;;;;;1999.90;999.90;;;17.30;99.90;;;;;;5051547;28;20099;-75
2023/09/19 00:08:04;;;;;;;1999.90;999.90;;;17.40;99.90;;;;;;5052340;28;20029;-74
2023/09/19 00:10:30;;;;;;;1999.90;999.90;;;17.40;99.90;;;;;;5052888;28;20021;-75
2023/09/19 00:13:00;;;;;;;1999.90;999.90;;;17.40;99.90;;;;;;5054724;28;20119;-76
2023/09/19 00:15:28;;;;;;;1999.90;999.90;;;17.50;99.90;;;;;;5056230;28;20060;-75
2023/09/19 00:17:54;;;;;;;1999.90;999.90;;;17.50;99.90;;;;;;5055785;28;20021;-76
2023/09/19 00:20:22;;;;;;;1999.90;999.90;;;17.40;99.90;;;;;;5054595;28;20403;-75
2023/09/19 00:22:51;;;;;;;1999.90;999.90;;;17.50;99.90;;;;;;5055716;28;20051;-76
2023/09/19 00:25:18;;;;;;;1999.90;999.90;;;17.50;99.90;;;;;;5055804;28;20025;-76
2023/09/19 00:27:44;;;;;;;1999.90;999.90;;;17.60;99.90;;;;;;5055995;28;20055;-76
2023/09/19 00:30:15;;;;;;;1999.90;999.90;;;17.50;99.90;;;;;;5055707;28;20032;-76
2023/09/19 00:32:42;;;;;;;1999.90;999.90;;;17.50;99.90;;;;;;5035608;28;20025;-74
2023/09/19 00:35:10;;;;;;;1999.90;999.90;;;17.50;99.90;;;;;;5035701;28;20025;-76
2023/09/19 00:37:37;;;;;;;1999.90;999.90;;;17.50;99.90;;;;;;5036410;28;20399;-75
2023/09/19 00:40:11;;;;;;;1999.90;999.90;;;17.40;99.90;;;;;;5046757;28;20028;-74
2023/09/19 00:42:40;;;;;;;1999.90;999.90;;;17.40;99.90;;;;;;5035419;28;20095;-75
2023/09/19 00:45:10;;;;;;;1999.90;999.90;;;17.30;99.90;;;;;;5035522;28;20127;-74
2023/09/19 00:47:37;;;;;;;1999.90;999.90;;;17.30;99.90;;;;;;5035490;28;20492;-74
2023/09/19 00:50:07;;;;;;;1999.90;999.90;;;17.30;99.90;;;;;;5035397;28;20501;-75
2023/09/19 00:52:33;;;;;;;1999.90;999.90;;;17.30;99.90;;;;;;5034392;28;20508;-75
2023/09/19 00:55:00;;;;;;;1999.90;999.90;;;17.30;99.90;;;;;;5035514;28;20032;-76
2023/09/19 00:57:25;;;;;;;1999.90;999.90;;;17.30;99.90;;;;;;5035325;28;20035;-74
2023/09/19 00:59:53;;;;;;;1999.90;999.90;;;17.30;99.90;;;;;;5041667;28;20429;-74
2023/09/19 01:02:19;;;;;;;1999.90;999.90;;;17.20;99.90;;;;;;5052704;28;20028;-75
2023/09/19 01:04:45;;;;;;;1999.90;999.90;;;17.10;99.90;;;;;;5053332;28;20099;-74
2023/09/19 01:07:11;;;;;;;1999.90;999.90;;;17.10;99.90;;;;;;5055171;28;20045;-76
2023/09/19 01:09:38;;;;;;;1999.90;999.90;;;17.10;99.90;;;;;;5054903;28;20031;-76
2023/09/19 01:12:06;;;;;;;1999.90;999.90;;;17.00;99.90;;;;;;5054780;28;20031;-74
2023/09/19 01:15:10;;;;;;;1999.90;999.90;;;16.90;99.90;;;;;;5054660;28;20021;-75
2023/09/19 01:17:51;;;;;;;1999.90;999.90;;;16.90;99.90;;;;;;5054074;28;20052;-76
2023/09/19 01:20:27;;;;;;;1999.90;999.90;;;16.90;99.90;;;;;;5054119;28;20024;-74
2023/09/19 01:23:03;;;;;;;1999.90;999.90;;;16.80;99.90;;;;;;5045321;28;20032;-76
2023/09/19 01:25:41;;;;;;;1999.90;999.90;;;16.90;99.90;;;;;;5054714;28;20075;-75
2023/09/19 01:28:26;;;;;;;1999.90;999.90;;;16.90;99.90;;;;;;5054790;28;20110;-76
2023/09/19 01:30:57;;;;;;;1999.90;999.90;;;16.90;99.90;;;;;;5054164;28;20036;-76
2023/09/19 01:33:23;;;;;;;1999.90;999.90;;;17.00;99.90;;;;;;5054523;28;20049;-76
2023/09/19 01:35:50;;;;;;;1999.90;999.90;;;17.00;99.90;;;;;;5054564;28;20024;-76
2023/09/19 01:38:16;;;;;;;1999.90;999.90;;;17.20;99.90;;;;;;5049392;28;20026;-74
2023/09/19 01:40:43;;;;;;;1999.90;999.90;;;17.30;99.90;;;;;;5043196;28;20096;-75
2023/09/19 01:43:17;;;;;;;1999.90;999.90;;;17.30;99.90;;;;;;5034370;28;20024;-76
2023/09/19 01:46:03;;;;;;;1999.90;999.90;;;17.30;99.90;;;;;;5034292;28;20022;-74
2023/09/19 01:48:46;;;;;;;1999.90;999.90;;;17.30;99.90;;;;;;5034329;28;20026;-76
2023/09/19 01:51:20;;;;;;;1999.90;999.90;;;17.40;99.90;;;;;;5034418;28;20123;-74
2023/09/19 01:54:06;;;;;;;1999.90;999.90;;;17.40;99.90;;;;;;5034243;28;20029;-75
2023/09/19 01:56:42;;;;;;;1999.90;999.90;;;17.40;99.90;;;;;;5034395;28;20021;-76
2023/09/19 01:59:13;;;;;;;1999.90;999.90;;;17.60;99.90;;;;;;5034549;28;20092;-76
2023/09/19 02:01:40;;;;;;;1999.90;999.90;;;17.70;99.90;;;;;;5054124;28;20028;-76
2023/09/19 02:04:07;;;;;;;1999.90;999.90;;;17.70;99.90;;;;;;5053481;28;20590;-74
2023/09/19 02:06:33;;;;;;;1999.90;999.90;;;17.80;99.90;;;;;;5054036;28;20083;-75
2023/09/19 02:08:59;;;;;;;1999.90;999.90;;;17.80;99.90;;;;;;5053716;28;20025;-76
2023/09/19 02:11:25;;;;;;;1999.90;999.90;;;17.70;99.90;;;;;;5053862;28;20048;-76
2023/09/19 02:13:54;;;;;;;1999.90;999.90;;;17.70;99.90;;;;;;5053747;28;20466;-76
2023/09/19 02:16:20;;;;;;;1999.90;999.90;;;17.70;99.90;;;;;;5053883;28;20415;-74
2023/09/19 02:18:51;;;;;;;1999.90;999.90;;;17.70;99.90;;;;;;5053773;28;20021;-76
2023/09/19 02:21:17;;;;;;;1999.90;999.90;;;17.70;99.90;;;;;;5053696;28;20060;-76
2023/09/19 02:23:47;;;;;;;1999.90;999.90;;;17.80;99.90;;;;;;5054029;28;20039;-76
2023/09/19 02:26:13;;;;;;;1999.90;999.90;;;17.80;99.90;;;;;;5053772;28;20432;-76
2023/09/19 02:28:40;;;;;;;1999.90;999.90;;;17.80;99.90;;;;;;5053399;28;20492;-74
2023/09/19 02:31:05;;;;;;;1999.90;999.90;;;17.80;99.90;;;;;;5052991;28;20073;-74
2023/09/19 02:33:32;;;;;;;1999.90;999.90;;;17.90;99.90;;;;;;5052962;28;20428;-76
2023/09/19 02:35:58;;;;;;;1999.90;999.90;;;18.00;99.90;;;;;;5052753;28;20074;-76
2023/09/19 02:38:25;;;;;;;1999.90;999.90;;;18.00;99.90;;;;;;5047183;28;20024;-76
2023/09/19 02:40:52;;;;;;;1999.90;999.90;;;18.10;99.90;;;;;;5042110;28;20021;-76
2023/09/19 02:43:19;;;;;;;1999.90;999.90;;;18.10;99.90;;;;;;5033285;28;20009;-74
2023/09/19 02:45:46;;;;;;;1999.90;999.90;;;18.20;99.90;;;;;;5033239;28;20021;-76
2023/09/19 02:48:12;;;;;;;1999.90;999.90;;;18.20;99.90;;;;;;5033230;28;20021;-76
2023/09/19 02:50:40;;;;;;;1999.90;999.90;;;18.10;99.90;;;;;;5032978;28;20022;-76
2023/09/19 02:53:06;;;;;;;1999.90;999.90;;;17.80;99.90;;;;;;5031558;28;20025;-76
2023/09/19 02:55:32;;;;;;;1999.90;999.90;;;17.70;99.90;;;;;;5033390;28;20021;-76
2023/09/19 02:57:58;;;;;;;1999.90;999.90;;;17.60;99.90;;;;;;5033390;28;20016;-76
2023/09/19 03:00:24;;;;;;;1999.90;999.90;;;17.60;99.90;;;;;;5043701;28;20490;-76
2023/09/19 03:02:52;;;;;;;1999.90;999.90;;;17.70;99.90;;;;;;5052670;28;20107;-76
2023/09/19 03:05:19;;;;;;;1999.90;999.90;;;17.70;99.90;;;;;;5052529;28;20545;-76
2023/09/19 03:07:46;;;;;;;1999.90;999.90;;;17.70;99.90;;;;;;5052827;28;20399;-74
2023/09/19 03:10:14;;;;;;;1999.90;999.90;;;17.60;99.90;;;;;;5052802;28;20444;-76
2023/09/19 03:12:40;;;;;;;1999.90;999.90;;;17.60;99.90;;;;;;5052508;28;20061;-76
2023/09/19 03:15:08;;;;;;;1999.90;999.90;;;17.50;99.90;;;;;;5052507;28;20056;-76
2023/09/19 03:17:34;;;;;;;1999.90;999.90;;;17.50;99.90;;;;;;5052496;28;20041;-76
2023/09/19 03:19:59;;;;;;;1999.90;999.90;;;17.50;99.90;;;;;;5052832;28;20091;-76
2023/09/19 03:22:27;;;;;;;1999.90;999.90;;;17.50;99.90;;;;;;5051083;28;20082;-74
2023/09/19 03:24:53;;;;;;;1999.90;999.90;;;17.50;99.90;;;;;;5052298;28;20073;-76
2023/09/19 03:27:20;;;;;;;1999.90;999.90;;;17.50;99.90;;;;;;5052787;28;20059;-76
2023/09/19 03:29:46;;;;;;;1999.90;999.90;;;17.40;99.90;;;;;;5052707;28;20035;-77
2023/09/19 03:32:12;;;;;;;1999.90;999.90;;;17.40;99.90;;;;;;5052431;28;20392;-76
2023/09/19 03:34:42;;;;;;;1999.90;999.90;;;17.40;99.90;;;;;;5052389;28;20036;-74
2023/09/19 03:37:11;;;;;;;1999.90;999.90;;;17.30;99.90;;;;;;5052738;28;20023;-75
2023/09/19 03:39:37;;;;;;;1999.90;999.90;;;17.50;99.90;;;;;;5044282;28;20040;-74
2023/09/19 03:42:03;;;;;;;1999.90;999.90;;;17.50;99.90;;;;;;5033212;28;20029;-76
2023/09/19 03:44:30;;;;;;;1999.90;999.90;;;17.60;99.90;;;;;;5032609;28;20040;-76
2023/09/19 03:46:56;;;;;;;1999.90;999.90;;;17.70;99.90;;;;;;5035748;28;20029;-74
2023/09/19 03:49:22;;;;;;;1999.90;999.90;;;17.80;99.90;;;;;;5035039;28;20021;-74
2023/09/19 03:51:48;;;;;;;1999.90;999.90;;;17.80;99.90;;;;;;5035080;28;20030;-76
2023/09/19 03:54:13;;;;;;;1999.90;999.90;;;17.90;99.90;;;;;;5036643;28;20057;-76
2023/09/19 03:56:39;;;;;;;1999.90;999.90;;;17.90;99.90;;;;;;5035150;28;20021;-76
2023/09/19 03:59:05;;;;;;;1999.90;999.90;;;17.90;99.90;;;;;;5036186;28;20432;-76
2023/09/19 04:01:32;;;;;;;1999.90;999.90;;;18.00;99.90;;;;;;5055213;28;20028;-74
2023/09/19 04:03:58;;;;;;;1999.90;999.90;;;18.00;99.90;;;;;;5055933;28;20040;-76
2023/09/19 04:06:24;;;;;;;1999.90;999.90;;;18.10;99.90;;;;;;5056316;28;20111;-76
2023/09/19 04:08:50;;;;;;;1999.90;999.90;;;18.10;99.90;;;;;;5056222;28;20693;-74
2023/09/19 04:11:16;;;;;;;1999.90;999.90;;;18.10;99.90;;;;;;5056001;28;20107;-76
2023/09/19 04:13:41;;;;;;;1999.90;999.90;;;18.10;99.90;;;;;;5056104;28;20120;-76
2023/09/19 04:16:07;;;;;;;1999.90;999.90;;;18.10;99.90;;;;;;5055892;28;20509;-76
2023/09/19 04:18:37;;;;;;;1999.90;999.90;;;18.10;99.90;;;;;;5056046;28;20058;-77
2023/09/19 04:21:04;;;;;;;1999.90;999.90;;;18.10;99.90;;;;;;5054454;28;20075;-77
2023/09/19 04:23:29;;;;;;;1999.90;999.90;;;18.00;99.90;;;;;;5053741;28;20025;-76
2023/09/19 04:25:55;;;;;;;1999.90;999.90;;;18.10;99.90;;;;;;5055883;28;20029;-74
2023/09/19 04:28:21;;;;;;;1999.90;999.90;;;18.10;99.90;;;;;;5047124;28;20098;-74
2023/09/19 04:30:46;;;;;;;1999.90;999.90;;;18.10;99.90;;;;;;5039950;28;20092;-74
2023/09/19 04:33:14;;;;;;;1999.90;999.90;;;18.00;99.90;;;;;;5047045;28;20036;-77
2023/09/19 04:35:42;;;;;;;1999.90;999.90;;;18.00;99.90;;;;;;5036894;28;20018;-74
2023/09/19 04:38:08;;;;;;;1999.90;999.90;;;18.00;99.90;;;;;;5039156;28;20029;-77
2023/09/19 04:40:34;;;;;;;1999.90;999.90;;;18.10;99.90;;;;;;5044182;28;20018;-74
2023/09/19 04:43:00;;;;;;;1999.90;999.90;;;18.00;99.90;;;;;;5035724;28;20029;-77
2023/09/19 04:45:27;;;;;;;1999.90;999.90;;;18.00;99.90;;;;;;5035524;28;20619;-77
2023/09/19 04:47:53;;;;;;;1999.90;999.90;;;18.00;99.90;;;;;;5035029;28;20496;-77
2023/09/19 04:50:21;;;;;;;1999.90;999.90;;;18.00;99.90;;;;;;5034122;28;20021;-77
2023/09/19 04:52:50;;;;;;;1999.90;999.90;;;18.00;99.90;;;;;;5035221;28;20028;-76
2023/09/19 04:55:17;;;;;;;1999.90;999.90;;;17.90;99.90;;;;;;5035650;28;20021;-76
2023/09/19 04:57:50;;;;;;;1999.90;999.90;;;17.90;99.90;;;;;;5041635;28;20099;-76
2023/09/19 05:00:22;;;;;;;1999.90;999.90;;;17.90;99.90;;;;;;5055050;28;20013;-77
2023/09/19 05:02:56;;;;;;;1999.90;999.90;;;17.90;99.90;;;;;;5053517;28;20036;-77
2023/09/19 05:05:22;;;;;;;1999.90;999.90;;;17.90;99.90;;;;;;5054472;28;20454;-74
2023/09/19 05:07:48;;;;;;;1999.90;999.90;;;17.80;99.90;;;;;;5054736;28;20400;-74
2023/09/19 05:10:14;;;;;;;1999.90;999.90;;;17.80;99.90;;;;;;5054781;28;20032;-77
2023/09/19 05:12:40;;;;;;;1999.90;999.90;;;17.70;99.90;;;;;;5046707;28;20033;-77
2023/09/19 05:15:07;;;;;;;1999.90;999.90;;;17.70;99.90;;;;;;5036722;28;20026;-77
2023/09/19 05:17:34;;;;;;;1999.90;999.90;;;17.80;99.90;;;;;;5033684;28;20034;-74
2023/09/19 05:20:43;;;;;;;1999.90;999.90;;;17.80;99.90;;;;;;5034646;28;20026;-75
2023/09/19 05:22:50;;;;;;;1999.90;999.90;;;17.80;99.90;;;;;;5042118;28;20033;-77
2023/09/19 05:25:18;;;;;;;1999.90;999.90;;;17.80;99.90;;;;;;5054893;28;20048;-77
2023/09/19 05:27:44;;;;;;;1999.90;999.90;;;17.80;99.90;;;;;;5054333;28;20100;-77
2023/09/19 05:30:10;;;;;;;1999.90;999.90;;;17.70;99.90;;;;;;5054438;28;20104;-77
2023/09/19 05:32:36;;;;;;;1999.90;999.90;;;17.60;99.90;;;;;;5052316;28;20519;-75
2023/09/19 05:35:03;;;;;;;1999.90;999.90;;;17.50;99.90;;;;;;5045828;28;20104;-77
2023/09/19 05:37:29;;;;;;;1999.90;999.90;;;17.40;99.90;;;;;;5041072;28;20121;-77
2023/09/19 05:39:55;;;;;;;1999.90;999.90;;;17.30;99.90;;;;;;5044024;28;20047;-76
2023/09/19 05:42:20;;;;;;;1999.90;999.90;;;17.30;99.90;;;;;;5053332;28;20033;-77
2023/09/19 05:44:46;;;;;;;1999.90;999.90;;;17.30;99.90;;;;;;5053753;28;20033;-75
2023/09/19 05:47:12;;;;;;;1999.90;999.90;;;17.30;99.90;;;;;;5053268;28;20036;-75
2023/09/19 05:49:38;;;;;;;1999.90;999.90;;;17.20;99.90;;;;;;5052805;28;20047;-77
2023/09/19 05:52:07;;;;;;;1999.90;999.90;;;17.20;99.90;;;;;;5047669;28;20034;-77
2023/09/19 05:54:34;;;;;;;1999.90;999.90;;;17.20;99.90;;;;;;5051734;28;20025;-77
2023/09/19 05:57:00;;;;;;;1999.90;999.90;;;17.20;99.90;;;;;;5050127;28;20025;-75
2023/09/19 05:59:26;;;;;;;1999.90;999.90;;;17.10;99.90;;;;;;5052896;28;20029;-74
2023/09/19 06:01:52;;;;;;;1999.90;999.90;;;17.10;99.90;;;;;;5051381;28;20037;-77
2023/09/19 06:04:18;;;;;;;1999.90;999.90;;;17.10;99.90;;;;;;5048086;28;20139;-77
2023/09/19 06:06:44;;;;;;;1999.90;999.90;;;17.10;99.90;;;;;;5052593;28;20029;-77
2023/09/19 06:09:10;;;;;;;1999.90;999.90;;;17.00;99.90;;;;;;5052344;28;20044;-77
2023/09/19 06:11:36;;;;;;;1999.90;999.90;;;17.10;99.90;;;;;;5051117;28;20043;-75
2023/09/19 06:14:02;;;;;;;1999.90;999.90;;;17.00;99.90;;;;;;5049379;28;20476;-77
2023/09/19 06:16:31;;;;;;;1999.90;999.90;;;17.10;99.90;;;;;;5050897;28;20095;-77
2023/09/19 06:18:58;;;;;;;1999.90;999.90;;;17.10;99.90;;;;;;5053079;28;20025;-77
2023/09/19 06:21:24;;;;;;;1999.90;999.90;;;17.10;99.90;;;;;;5051326;28;20389;-76
2023/09/19 06:23:49;;;;;;;1999.90;999.90;;;17.20;99.90;;;;;;5052849;28;20032;-77
2023/09/19 06:26:15;;;;;;;1999.90;999.90;;;17.20;99.90;;;;;;5052891;28;20029;-75
2023/09/19 06:28:42;;;;;;;1999.90;999.90;;;17.30;99.90;;;;;;5050614;28;20063;-77
2023/09/19 06:31:09;;;;;;;1999.90;999.90;;;17.30;99.90;;;;;;5051224;28;20025;-77
2023/09/19 06:33:38;;;;;;;1999.90;999.90;;;17.40;99.90;;;;;;5048663;28;20096;-77
2023/09/19 06:36:05;;;;;;;1999.90;999.90;;;17.40;99.90;;;;;;5046874;28;20068;-74
2023/09/19 06:38:32;;;;;;;1999.90;999.90;;;17.50;99.90;;;;;;5045904;28;20072;-75
2023/09/19 06:40:58;;;;;;;1999.90;999.90;;;17.60;99.90;;;;;;5050152;28;20048;-77
2023/09/19 06:43:24;;;;;;;1999.90;999.90;;;17.70;99.90;;;;;;5051696;28;20063;-74
2023/09/19 06:45:51;;;;;;;1999.90;999.90;;;17.80;99.90;;;;;;5042777;28;20060;-77
2023/09/19 06:48:18;;;;;;;1999.90;999.90;;;17.90;99.90;;;;;;5045083;28;20455;-74
2023/09/19 06:50:44;;;;;;;1999.90;999.90;;;17.90;99.90;;;;;;5047555;28;20404;-75
2023/09/19 06:53:10;;;;;;;1999.90;999.90;;;17.90;99.90;;;;;;5051049;28;20064;-77
2023/09/19 06:55:36;;;;;;;1999.90;999.90;;;17.80;99.90;;;;;;5055008;28;20228;-78
2023/09/19 06:58:02;;;;;;;1999.90;999.90;;;17.90;99.90;;;;;;5058625;28;20036;-78
2023/09/19 07:00:31;;;;;;;1999.90;999.90;;;17.90;99.90;;;;;;5054301;28;20025;-77
2023/09/19 07:03:13;;;;;;;1999.90;999.90;;;17.90;99.90;;;;;;5050814;28;20029;-75
2023/09/19 07:05:40;;;;;;;1999.90;999.90;;;18.00;99.90;;;;;;5045065;28;20084;-78
2023/09/19 07:08:07;;;;;;;1999.90;999.90;;;18.00;99.90;;;;;;5050099;28;20032;-78
2023/09/19 07:10:34;;;;;;;1999.90;999.90;;;17.90;99.90;;;;;;5046820;28;20075;-77
2023/09/19 07:13:00;;;;;;;1999.90;999.90;;;18.00;99.90;;;;;;5048033;28;20082;-77
2023/09/19 07:15:27;;;;;;;1999.90;999.90;;;18.30;99.90;;;;;;5049400;28;20029;-74
2023/09/19 07:17:53;;;;;;;1999.90;999.90;;;18.40;99.90;;;;;;5042345;28;20029;-77
2023/09/19 07:20:20;;;;;;;1999.90;999.90;;;18.40;99.90;;;;;;5049266;28;20488;-76
2023/09/19 07:22:47;;;;;;;1999.90;999.90;;;18.50;99.90;;;;;;5050442;28;20021;-78
2023/09/19 07:25:14;;;;;;;1999.90;999.90;;;18.60;99.90;;;;;;5050402;28;20553;-74
2023/09/19 07:27:41;;;;;;;1999.90;999.90;;;18.70;99.90;;;;;;5050753;28;20029;-78
2023/09/19 07:30:08;;;;;;;1999.90;999.90;;;18.80;99.90;;;;;;5050537;28;20075;-77
2023/09/19 07:32:36;;;;;;;1999.90;999.90;;;18.70;99.90;;;;;;5050162;28;20044;-78
2023/09/19 07:35:02;;;;;;;1999.90;999.90;;;18.90;99.90;;;;;;5048342;28;20638;-77
2023/09/19 07:37:31;;;;;;;1999.90;999.90;;;19.10;99.90;;;;;;5047957;28;20052;-78
2023/09/19 07:39:56;;;;;;;1999.90;999.90;;;19.20;99.90;;;;;;5047748;28;20032;-79
2023/09/19 07:42:22;;;;;;;1999.90;999.90;;;19.40;99.90;;;;;;5049622;28;20033;-75
2023/09/19 07:44:50;;;;;;;1999.90;999.90;;;19.50;99.90;;;;;;5046556;28;20110;-77
2023/09/19 07:47:16;;;;;;;1999.90;999.90;;;19.40;99.90;;;;;;5048933;28;20060;-80
2023/09/19 07:49:42;;;;;;;1999.90;999.90;;;19.50;99.90;;;;;;5045120;28;20021;-80
2023/09/19 07:52:09;;;;;;;1999.90;999.90;;;19.60;99.90;;;;;;5049337;28;20484;-80
2023/09/19 07:54:35;;;;;;;1999.90;999.90;;;20.30;99.90;;;;;;5054776;28;20024;-79
2023/09/19 07:57:01;;;;;;;1999.90;999.90;;;20.30;99.90;;;;;;5056196;28;20503;-73
2023/09/19 07:59:27;;;;;;;1999.90;999.90;;;20.50;99.90;;;;;;5039045;28;20422;-75
2023/09/19 08:01:53;;;;;;;1999.90;999.90;;;20.20;99.90;;;;;;5048977;28;20029;-78
2023/09/19 08:04:19;;;;;;;1999.90;999.90;;;19.90;99.90;;;;;;5046576;28;20036;-74
2023/09/19 08:06:45;;;;;;;1999.90;999.90;;;19.70;99.90;;;;;;5044663;28;20039;-74
2023/09/19 08:09:14;;;;;;;1999.90;999.90;;;19.50;99.90;;;;;;5065402;28;20104;-73
2023/09/19 08:11:39;;;;;;;1999.90;999.90;;;19.50;99.90;;;;;;5046741;28;20068;-78
2023/09/19 08:14:07;;;;;;;1999.90;999.90;;;19.30;99.90;;;;;;5043086;28;20063;-76
2023/09/19 08:16:33;;;;;;;1999.90;999.90;;;19.30;99.90;;;;;;5032725;28;20021;-77
2023/09/19 08:18:58;;;;;;;1999.90;999.90;;;19.30;99.90;;;;;;5037674;28;20404;-78
2023/09/19 08:21:25;;;;;;;1999.90;999.90;;;19.30;99.90;;;;;;5050479;28;20258;-72
2023/09/19 08:23:51;;;;;;;1999.90;999.90;;;19.40;99.90;;;;;;5048158;28;20503;-79
2023/09/19 08:26:16;;;;;;;1999.90;999.90;;;19.30;99.90;;;;;;5039064;28;20025;-78
2023/09/19 08:28:42;;;;;;;1999.90;999.90;;;19.30;99.90;;;;;;5049060;28;20140;-76
2023/09/19 08:31:08;;;;;;;1999.90;999.90;;;19.40;99.90;;;;;;5049924;28;20135;-72
2023/09/19 08:33:35;;;;;;;1999.90;999.90;;;19.40;99.90;;;;;;5053419;28;20060;-71
2023/09/19 08:36:04;;;;;;;1999.90;999.90;;;19.20;99.90;;;;;;5053641;28;20032;-71
2023/09/19 08:38:34;;;;;;;1999.90;999.90;;;19.10;99.90;;;;;;5053377;28;20569;-77
2023/09/19 08:41:05;;;;;;;1999.90;999.90;;;19.10;99.90;;;;;;5054126;28;20312;-78
2023/09/19 08:43:34;;;;;;;1999.90;999.90;;;19.00;99.90;;;;;;5053962;28;20056;-78
2023/09/19 08:46:20;;;;;;;1999.90;999.90;;;19.10;99.90;;;;;;5051982;28;20539;-79
2023/09/19 08:49:03;;;;;;;1999.90;999.90;;;19.20;99.90;;;;;;5047415;28;20025;-72
2023/09/19 08:51:45;;;;;;;1999.90;999.90;;;19.30;99.90;;;;;;5041512;28;20079;-78
2023/09/19 08:54:31;;;;;;;1999.90;999.90;;;19.40;99.90;;;;;;5047765;28;20029;-78
2023/09/19 08:57:07;;;;;;;1999.90;999.90;;;20.50;99.90;;;;;;5047223;28;20021;-78
2023/09/19 08:59:35;;;;;;;1999.90;999.90;;;20.50;99.90;;;;;;5053595;28;20025;-72
2023/09/19 09:02:00;;;;;;;1999.90;999.90;;;20.70;99.90;;;;;;5061393;28;20159;-78
2023/09/19 09:04:27;;;;;;;1999.90;999.90;;;20.80;99.90;;;;;;5053062;28;20127;-72
2023/09/19 09:06:54;;;;;;;1999.90;999.90;;;22.00;99.90;;;;;;5051446;28;20040;-78
2023/09/19 09:09:20;;;;;;;1999.90;999.90;;;24.20;99.90;;;;;;5053841;28;20049;-79
2023/09/19 09:11:52;;;;;;;1999.90;999.90;;;26.70;99.90;;;;;;5051493;28;20452;-79
2023/09/19 09:14:21;;;;;;;1999.90;999.90;;;27.90;99.90;;;;;;5052307;28;20029;-74
2023/09/19 09:16:48;;;;;;;1999.90;999.90;;;28.30;99.90;;;;;;5053030;28;20472;-79
2023/09/19 09:19:14;;;;;;;1999.90;999.90;;;28.30;99.90;;;;;;5053519;28;20021;-80
2023/09/19 09:21:40;;;;;;;1999.90;999.90;;;26.70;99.90;;;;;;5054307;28;20031;-80
2023/09/19 09:24:33;;;;;;;1999.90;999.90;;;25.60;99.90;;;;;;5053498;28;20028;-80
2023/09/19 09:27:00;;;;;;;1999.90;999.90;;;24.20;99.90;;;;;;5067305;28;20182;-74
2023/09/19 09:29:47;;;;;;;1999.90;999.90;;;24.60;99.90;;;;;;5068412;28;20040;-80
2023/09/19 09:32:34;;;;;;;1999.90;999.90;;;25.20;99.90;;;;;;5051006;28;20392;-79
2023/09/19 09:35:01;;;;;;;1999.90;999.90;;;25.20;99.90;;;;;;5050386;28;20025;-79
2023/09/19 09:37:31;;;;;;;1999.90;999.90;;;24.40;99.90;;;;;;5050915;28;20033;-79
2023/09/19 09:39:58;;;;;;;1999.90;999.90;;;24.00;99.90;;;;;;5052775;28;20036;-75
2023/09/19 09:42:39;;;;;;;1999.90;999.90;;;23.90;99.90;;;;;;5051241;28;20420;-79
2023/09/19 09:46:00;;;;;;;1999.90;999.90;;;23.80;99.90;;;;;;5051474;28;20025;-76
2023/09/19 09:48:31;;;;;;;1999.90;999.90;;;23.80;99.90;;;;;;5046499;28;20045;-79
2023/09/19 09:50:59;;;;;;;1999.90;999.90;;;23.40;99.90;;;;;;5054495;28;20052;-75
2023/09/19 09:53:31;;;;;;;1999.90;999.90;;;23.30;99.90;;;;;;5058606;28;20059;-74
2023/09/19 09:56:18;;;;;;;1999.90;999.90;;;23.10;99.90;;;;;;5052438;28;20025;-78
2023/09/19 09:58:59;;;;;;;1999.90;999.90;;;22.80;99.90;;;;;;5064096;28;20104;-75
2023/09/19 10:01:26;;;;;;;1999.90;999.90;;;22.70;99.90;;;;;;5048062;28;20035;-78
2023/09/19 10:03:58;;;;;;;1999.90;999.90;;;22.90;99.90;;;;;;5051701;28;20041;-79
2023/09/19 10:09:10;;;;;;;1999.90;999.90;;;23.30;99.90;;;;;;5067523;28;20036;-78
2023/09/19 10:11:44;;;;;;;1999.90;999.90;;;22.90;99.90;;;;;;5044041;28;20044;-78
2023/09/19 10:14:12;;;;;;;1999.90;999.90;;;23.20;99.90;;;;;;5048323;28;20052;-78
2023/09/19 10:16:48;;;;;;;1999.90;999.90;;;23.50;99.90;;;;;;5052438;28;20029;-75
2023/09/19 10:19:58;;;;;;;1999.90;999.90;;;23.60;99.90;;;;;;5051363;28;20035;-78
2023/09/19 10:22:26;;;;;;;1999.90;999.90;;;23.90;99.90;;;;;;5009091;28;20056;-78
2023/09/19 10:24:55;;;;;;;1999.90;999.90;;;23.70;99.90;;;;;;4992004;28;20034;-78
2023/09/19 10:27:22;;;;;;;1999.90;999.90;;;23.20;99.90;;;;;;5009260;28;20516;-78
2023/09/19 10:29:50;;;;;;;1999.90;999.90;;;23.50;99.90;;;;;;5010558;28;20033;-74
2023/09/19 10:32:19;;;;;;;1999.90;999.90;;;23.80;99.90;;;;;;5009602;28;20052;-78
2023/09/19 10:34:48;;;;;;;1999.90;999.90;;;23.40;99.90;;;;;;5010223;28;20041;-78
2023/09/19 10:37:16;;;;;;;1999.90;999.90;;;23.20;99.90;;;;;;5009340;28;20592;-79
2023/09/19 10:39:46;;;;;;;1999.90;999.90;;;23.20;99.90;;;;;;5006916;28;20401;-78
2023/09/19 10:42:18;;;;;;;1999.90;999.90;;;23.20;99.90;;;;;;5005021;28;20113;-78
2023/09/19 10:44:47;;;;;;;1999.90;999.90;;;23.20;99.90;;;;;;5006802;28;20026;-74
2023/09/19 10:47:14;;;;;;;1999.90;999.90;;;23.10;99.90;;;;;;4991160;28;20045;-75
2023/09/19 10:49:46;;;;;;;1999.90;999.90;;;23.10;99.90;;;;;;5009774;28;20153;-79
2023/09/19 10:52:19;;;;;;;1999.90;999.90;;;23.20;99.90;;;;;;5016729;28;20048;-76
2023/09/19 10:54:52;;;;;;;1999.90;999.90;;;23.30;99.90;;;;;;5055271;28;20409;-79
2023/09/19 10:57:27;;;;;;;1999.90;999.90;;;23.30;99.90;;;;;;5042141;28;20512;-77
2023/09/19 11:00:22;;;;;;;1999.90;999.90;;;23.40;99.90;;;;;;5042847;28;20436;-75
2023/09/19 11:03:11;;;;;;;1999.90;999.90;;;23.00;99.90;;;;;;5052280;28;20028;-79
2023/09/19 11:05:40;;;;;;;1999.90;999.90;;;23.30;99.90;;;;;;5045525;28;20072;-79
2023/09/19 11:08:07;;;;;;;1999.90;999.90;;;23.50;99.90;;;;;;5050391;28;20024;-79
2023/09/19 11:10:59;;;;;;;1999.90;999.90;;;23.80;99.90;;;;;;5050609;28;20036;-76
2023/09/19 11:13:34;;;;;;;1999.90;999.90;;;24.40;99.90;;;;;;5057398;28;20136;-78
2023/09/19 11:16:04;;;;;;;1999.90;999.90;;;24.20;99.90;;;;;;5043587;28;20040;-78
2023/09/19 11:18:42;;;;;;;1999.90;999.90;;;24.50;99.90;;;;;;5048271;28;20059;-80
2023/09/19 11:21:38;;;;;;;1999.90;999.90;;;24.80;99.90;;;;;;5045356;28;20033;-78
2023/09/19 11:24:10;;;;;;;1999.90;999.90;;;24.30;99.90;;;;;;5051376;28;20500;-78
2023/09/19 11:26:47;;;;;;;1999.90;999.90;;;23.60;99.90;;;;;;5052031;28;20036;-78
2023/09/19 11:29:25;;;;;;;1999.90;999.90;;;23.50;99.90;;;;;;5048381;28;20021;-78
2023/09/19 11:31:53;;;;;;;1999.90;999.90;;;23.80;99.90;;;;;;5049488;28;20075;-78
2023/09/19 11:34:41;;;;;;;1999.90;999.90;;;23.90;99.90;;;;;;5048857;28;20037;-78
2023/09/19 11:37:11;;;;;;;1999.90;999.90;;;24.00;99.90;;;;;;5052958;28;20503;-76
2023/09/19 11:39:38;;;;;;;1999.90;999.90;;;23.80;99.90;;;;;;5037863;28;20026;-77
2023/09/19 11:42:42;;;;;;;1999.90;999.90;;;23.60;99.90;;;;;;5031813;28;20033;-77
2023/09/19 11:45:29;;;;;;;1999.90;999.90;;;23.50;99.90;;;;;;5049612;28;20103;-77
2023/09/19 11:47:57;;;;;;;1999.90;999.90;;;23.40;99.90;;;;;;5054150;28;20086;-74
2023/09/19 11:50:24;;;;;;;1999.90;999.90;;;23.70;99.90;;;;;;5050959;28;20033;-75
2023/09/19 11:52:51;;;;;;;1999.90;999.90;;;24.20;99.90;;;;;;5050648;28;20404;-77
2023/09/19 11:55:21;;;;;;;1999.90;999.90;;;24.20;99.90;;;;;;5040302;28;20040;-76
2023/09/19 11:57:50;;;;;;;1999.90;999.90;;;24.20;99.90;;;;;;5047964;28;20053;-77
2023/09/19 12:00:21;;;;;;;1999.90;999.90;;;24.30;99.90;;;;;;5044945;28;20024;-77
2023/09/19 12:02:52;;;;;;;1999.90;999.90;;;24.20;99.90;;;;;;5041182;28;20462;-77
2023/09/19 12:05:29;;;;;;;1999.90;999.90;;;23.90;99.90;;;;;;5046377;28;20447;-77
2023/09/19 12:07:54;;;;;;;1999.90;999.90;;;23.90;99.90;;;;;;5050145;28;20033;-77
2023/09/19 12:10:23;;;;;;;1999.90;999.90;;;23.90;99.90;;;;;;5048571;28;20099;-80
2023/09/19 12:12:49;;;;;;;1999.90;999.90;;;23.90;99.90;;;;;;5053693;28;20067;-78